sensor_id;sensor_type;location;lat;lon;timestamp;P1;durP1;ratioP1;P2;durP2;ratioP2
6955;SDS011;50345;51.136;16.886;2023-01-08T00:00:49;40.17;;;28.00;;
6955;SDS011;50345;51.136;16.886;2023-01-08T00:03:15;32.22;;;24.90;;
6955;SDS011;50345;51.136;16.886;2023-01-08T00:05:41;40.87;;;26.30;;
6955;SDS011;50345;51.136;16.886;2023-01-08T00:08:07;33.90;;;23.77;;
6955;SDS011;50345;51.136;16.886;2023-01-08T00:10:33;34.70;;;26.05;;
6955;SDS011;50345;51.136;16.886;2023-01-08T00:12:59;32.85;;;24.50;;
6955;SDS011;50345;51.136;16.886;2023-01-08T00:15:25;33.03;;;25.23;;
6955;SDS011;50345;51.136;16.886;2023-01-08T00:17:50;30.43;;;23.67;;
6955;SDS011;50345;51.136;16.886;2023-01-08T00:20:16;37.50;;;25.07;;
6955;SDS011;50345;51.136;16.886;2023-01-08T00:22:41;35.40;;;26.60;;
6955;SDS011;50345;51.136;16.886;2023-01-08T00:25:07;32.73;;;25.03;;
6955;SDS011;50345;51.136;16.886;2023-01-08T00:27:33;36.30;;;25.00;;
6955;SDS011;50345;51.136;16.886;2023-01-08T00:29:58;36.87;;;24.33;;
6955;SDS011;50345;51.136;16.886;2023-01-08T00:32:24;34.40;;;25.97;;
6955;SDS011;50345;51.136;16.886;2023-01-08T00:34:50;34.00;;;25.73;;
6955;SDS011;50345;51.136;16.886;2023-01-08T00:37:18;32.10;;;24.75;;
6955;SDS011;50345;51.136;16.886;2023-01-08T00:39:44;36.57;;;26.53;;
6955;SDS011;50345;51.136;16.886;2023-01-08T00:42:10;35.13;;;25.53;;
6955;SDS011;50345;51.136;16.886;2023-01-08T00:44:36;34.72;;;25.33;;
6955;SDS011;50345;51.136;16.886;2023-01-08T00:47:02;33.93;;;26.33;;
6955;SDS011;50345;51.136;16.886;2023-01-08T00:49:27;35.67;;;25.37;;
6955;SDS011;50345;51.136;16.886;2023-01-08T00:51:53;36.33;;;24.47;;
6955;SDS011;50345;51.136;16.886;2023-01-08T00:54:19;34.50;;;24.20;;
6955;SDS011;50345;51.136;16.886;2023-01-08T00:56:44;32.40;;;24.50;;
6955;SDS011;50345;51.136;16.886;2023-01-08T00:59:10;33.77;;;25.57;;
6955;SDS011;50345;51.136;16.886;2023-01-08T01:01:36;37.63;;;25.40;;
6955;SDS011;50345;51.136;16.886;2023-01-08T01:04:02;32.75;;;23.83;;
6955;SDS011;50345;51.136;16.886;2023-01-08T01:06:28;30.80;;;23.60;;
6955;SDS011;50345;51.136;16.886;2023-01-08T01:08:53;39.63;;;30.07;;
6955;SDS011;50345;51.136;16.886;2023-01-08T01:11:25;40.78;;;25.27;;
6955;SDS011;50345;51.136;16.886;2023-01-08T01:13:53;36.75;;;24.65;;
6955;SDS011;50345;51.136;16.886;2023-01-08T01:16:19;34.22;;;24.85;;
6955;SDS011;50345;51.136;16.886;2023-01-08T01:18:45;30.30;;;24.30;;
6955;SDS011;50345;51.136;16.886;2023-01-08T01:21:12;34.63;;;23.98;;
6955;SDS011;50345;51.136;16.886;2023-01-08T01:23:44;30.20;;;23.70;;
6955;SDS011;50345;51.136;16.886;2023-01-08T01:26:17;31.83;;;25.33;;
6955;SDS011;50345;51.136;16.886;2023-01-08T01:28:45;36.83;;;25.75;;
6955;SDS011;50345;51.136;16.886;2023-01-08T01:31:12;34.30;;;24.15;;
6955;SDS011;50345;51.136;16.886;2023-01-08T01:33:38;33.10;;;24.33;;
6955;SDS011;50345;51.136;16.886;2023-01-08T01:36:05;32.35;;;24.02;;
6955;SDS011;50345;51.136;16.886;2023-01-08T01:38:31;33.53;;;26.25;;
6955;SDS011;50345;51.136;16.886;2023-01-08T01:40:57;32.70;;;23.43;;
6955;SDS011;50345;51.136;16.886;2023-01-08T01:43:39;27.45;;;21.60;;
6955;SDS011;50345;51.136;16.886;2023-01-08T01:46:17;33.45;;;24.75;;
6955;SDS011;50345;51.136;16.886;2023-01-08T01:48:45;29.92;;;22.75;;
6955;SDS011;50345;51.136;16.886;2023-01-08T01:51:15;32.78;;;22.40;;
6955;SDS011;50345;51.136;16.886;2023-01-08T01:53:41;30.93;;;24.50;;
6955;SDS011;50345;51.136;16.886;2023-01-08T01:56:06;33.17;;;24.33;;
6955;SDS011;50345;51.136;16.886;2023-01-08T01:58:33;26.63;;;21.27;;
6955;SDS011;50345;51.136;16.886;2023-01-08T02:01:00;30.40;;;23.63;;
6955;SDS011;50345;51.136;16.886;2023-01-08T02:03:29;29.40;;;23.95;;
6955;SDS011;50345;51.136;16.886;2023-01-08T02:16:40;35.57;;;25.03;;
6955;SDS011;50345;51.136;16.886;2023-01-08T02:19:20;33.75;;;22.67;;
6955;SDS011;50345;51.136;16.886;2023-01-08T02:27:33;32.35;;;22.92;;
6955;SDS011;50345;51.136;16.886;2023-01-08T02:30:00;29.13;;;21.95;;
6955;SDS011;50345;51.136;16.886;2023-01-08T02:32:32;31.45;;;23.27;;
6955;SDS011;50345;51.136;16.886;2023-01-08T02:35:01;31.77;;;23.00;;
6955;SDS011;50345;51.136;16.886;2023-01-08T02:37:26;29.02;;;22.75;;
6955;SDS011;50345;51.136;16.886;2023-01-08T02:40:03;31.40;;;25.07;;
6955;SDS011;50345;51.136;16.886;2023-01-08T02:42:38;28.23;;;23.13;;
6955;SDS011;50345;51.136;16.886;2023-01-08T02:48:12;35.65;;;24.17;;
6955;SDS011;50345;51.136;16.886;2023-01-08T02:50:59;38.92;;;25.27;;
6955;SDS011;50345;51.136;16.886;2023-01-08T02:53:42;31.35;;;23.27;;
6955;SDS011;50345;51.136;16.886;2023-01-08T02:56:11;32.03;;;24.60;;
6955;SDS011;50345;51.136;16.886;2023-01-08T02:58:40;36.05;;;25.08;;
6955;SDS011;50345;51.136;16.886;2023-01-08T03:01:08;39.85;;;27.85;;
6955;SDS011;50345;51.136;16.886;2023-01-08T03:03:36;31.10;;;23.73;;
6955;SDS011;50345;51.136;16.886;2023-01-08T03:06:09;30.50;;;24.85;;
6955;SDS011;50345;51.136;16.886;2023-01-08T03:08:42;33.95;;;24.60;;
6955;SDS011;50345;51.136;16.886;2023-01-08T03:11:15;34.67;;;23.90;;
6955;SDS011;50345;51.136;16.886;2023-01-08T03:13:50;28.17;;;23.23;;
6955;SDS011;50345;51.136;16.886;2023-01-08T03:16:26;35.30;;;26.17;;
6955;SDS011;50345;51.136;16.886;2023-01-08T03:21:45;33.88;;;26.80;;
6955;SDS011;50345;51.136;16.886;2023-01-08T03:24:13;32.03;;;23.15;;
6955;SDS011;50345;51.136;16.886;2023-01-08T03:26:41;32.22;;;24.17;;
6955;SDS011;50345;51.136;16.886;2023-01-08T03:29:11;35.90;;;27.52;;
6955;SDS011;50345;51.136;16.886;2023-01-08T03:31:39;34.90;;;24.45;;
6955;SDS011;50345;51.136;16.886;2023-01-08T03:34:06;33.25;;;24.13;;
6955;SDS011;50345;51.136;16.886;2023-01-08T03:36:33;34.88;;;25.00;;
6955;SDS011;50345;51.136;16.886;2023-01-08T03:39:04;35.72;;;25.35;;
6955;SDS011;50345;51.136;16.886;2023-01-08T03:41:40;31.02;;;25.33;;
6955;SDS011;50345;51.136;16.886;2023-01-08T03:44:06;38.50;;;26.23;;
6955;SDS011;50345;51.136;16.886;2023-01-08T03:46:33;29.60;;;25.87;;
6955;SDS011;50345;51.136;16.886;2023-01-08T03:49:02;34.78;;;24.73;;
6955;SDS011;50345;51.136;16.886;2023-01-08T03:51:38;36.08;;;24.92;;
6955;SDS011;50345;51.136;16.886;2023-01-08T03:54:05;34.50;;;24.15;;
6955;SDS011;50345;51.136;16.886;2023-01-08T03:56:33;40.05;;;28.17;;
6955;SDS011;50345;51.136;16.886;2023-01-08T03:58:58;38.83;;;28.20;;
6955;SDS011;50345;51.136;16.886;2023-01-08T04:01:24;35.20;;;26.90;;
6955;SDS011;50345;51.136;16.886;2023-01-08T04:03:49;36.40;;;26.53;;
6955;SDS011;50345;51.136;16.886;2023-01-08T04:06:15;36.87;;;27.07;;
6955;SDS011;50345;51.136;16.886;2023-01-08T04:08:40;41.70;;;28.50;;
6955;SDS011;50345;51.136;16.886;2023-01-08T04:11:06;43.47;;;30.47;;
6955;SDS011;50345;51.136;16.886;2023-01-08T04:13:31;33.10;;;25.57;;
6955;SDS011;50345;51.136;16.886;2023-01-08T04:15:57;40.60;;;28.63;;
6955;SDS011;50345;51.136;16.886;2023-01-08T04:18:22;35.03;;;24.60;;
6955;SDS011;50345;51.136;16.886;2023-01-08T04:20:48;35.30;;;26.83;;
6955;SDS011;50345;51.136;16.886;2023-01-08T04:23:13;35.60;;;27.53;;
6955;SDS011;50345;51.136;16.886;2023-01-08T04:25:39;38.30;;;28.20;;
6955;SDS011;50345;51.136;16.886;2023-01-08T04:28:05;40.43;;;28.53;;
6955;SDS011;50345;51.136;16.886;2023-01-08T04:30:31;45.40;;;26.57;;
6955;SDS011;50345;51.136;16.886;2023-01-08T04:32:56;38.47;;;31.70;;
6955;SDS011;50345;51.136;16.886;2023-01-08T04:35:22;42.53;;;30.07;;
6955;SDS011;50345;51.136;16.886;2023-01-08T04:37:47;40.00;;;28.63;;
6955;SDS011;50345;51.136;16.886;2023-01-08T04:40:13;41.70;;;27.80;;
6955;SDS011;50345;51.136;16.886;2023-01-08T04:42:39;38.17;;;27.57;;
6955;SDS011;50345;51.136;16.886;2023-01-08T04:45:05;36.33;;;28.77;;
6955;SDS011;50345;51.136;16.886;2023-01-08T04:47:31;38.05;;;27.58;;
6955;SDS011;50345;51.136;16.886;2023-01-08T04:49:57;34.87;;;26.90;;
6955;SDS011;50345;51.136;16.886;2023-01-08T04:52:22;35.50;;;27.47;;
6955;SDS011;50345;51.136;16.886;2023-01-08T04:54:48;42.50;;;28.70;;
6955;SDS011;50345;51.136;16.886;2023-01-08T04:57:13;35.70;;;27.60;;
6955;SDS011;50345;51.136;16.886;2023-01-08T04:59:39;35.53;;;26.77;;
6955;SDS011;50345;51.136;16.886;2023-01-08T05:02:04;35.30;;;27.33;;
6955;SDS011;50345;51.136;16.886;2023-01-08T05:04:30;37.17;;;27.57;;
6955;SDS011;50345;51.136;16.886;2023-01-08T05:06:56;42.47;;;28.40;;
6955;SDS011;50345;51.136;16.886;2023-01-08T05:09:21;33.47;;;26.50;;
6955;SDS011;50345;51.136;16.886;2023-01-08T05:11:47;35.77;;;27.20;;
6955;SDS011;50345;51.136;16.886;2023-01-08T05:14:12;46.17;;;29.80;;
6955;SDS011;50345;51.136;16.886;2023-01-08T05:16:38;39.90;;;28.87;;
6955;SDS011;50345;51.136;16.886;2023-01-08T05:19:04;40.50;;;30.50;;
6955;SDS011;50345;51.136;16.886;2023-01-08T05:21:29;39.00;;;26.97;;
6955;SDS011;50345;51.136;16.886;2023-01-08T05:23:55;35.87;;;27.87;;
6955;SDS011;50345;51.136;16.886;2023-01-08T05:26:20;42.23;;;29.87;;
6955;SDS011;50345;51.136;16.886;2023-01-08T05:28:46;34.30;;;27.40;;
6955;SDS011;50345;51.136;16.886;2023-01-08T05:31:12;37.27;;;25.07;;
6955;SDS011;50345;51.136;16.886;2023-01-08T05:33:38;38.93;;;25.97;;
6955;SDS011;50345;51.136;16.886;2023-01-08T05:36:05;39.60;;;29.20;;
6955;SDS011;50345;51.136;16.886;2023-01-08T05:38:34;34.67;;;27.48;;
6955;SDS011;50345;51.136;16.886;2023-01-08T05:41:00;37.97;;;26.00;;
6955;SDS011;50345;51.136;16.886;2023-01-08T05:43:25;40.80;;;27.87;;
6955;SDS011;50345;51.136;16.886;2023-01-08T05:45:51;33.90;;;26.40;;
6955;SDS011;50345;51.136;16.886;2023-01-08T05:48:17;34.97;;;26.83;;
6955;SDS011;50345;51.136;16.886;2023-01-08T05:50:42;37.33;;;25.33;;
6955;SDS011;50345;51.136;16.886;2023-01-08T05:53:08;38.80;;;26.50;;
6955;SDS011;50345;51.136;16.886;2023-01-08T05:55:34;39.27;;;27.60;;
6955;SDS011;50345;51.136;16.886;2023-01-08T05:58:00;35.63;;;26.25;;
6955;SDS011;50345;51.136;16.886;2023-01-08T06:00:27;36.70;;;28.67;;
6955;SDS011;50345;51.136;16.886;2023-01-08T06:02:53;66.85;;;55.17;;
6955;SDS011;50345;51.136;16.886;2023-01-08T06:05:18;39.77;;;32.37;;
6955;SDS011;50345;51.136;16.886;2023-01-08T06:07:44;46.07;;;35.60;;
6955;SDS011;50345;51.136;16.886;2023-01-08T06:10:09;51.90;;;36.80;;
6955;SDS011;50345;51.136;16.886;2023-01-08T06:12:35;70.20;;;46.13;;
6955;SDS011;50345;51.136;16.886;2023-01-08T06:15:01;97.53;;;68.80;;
6955;SDS011;50345;51.136;16.886;2023-01-08T06:17:27;60.50;;;42.00;;
6955;SDS011;50345;51.136;16.886;2023-01-08T06:19:53;43.80;;;31.53;;
6955;SDS011;50345;51.136;16.886;2023-01-08T06:22:18;42.63;;;30.57;;
6955;SDS011;50345;51.136;16.886;2023-01-08T06:24:44;60.17;;;40.37;;
6955;SDS011;50345;51.136;16.886;2023-01-08T06:27:09;53.13;;;40.77;;
6955;SDS011;50345;51.136;16.886;2023-01-08T06:29:35;54.37;;;39.87;;
6955;SDS011;50345;51.136;16.886;2023-01-08T06:32:00;44.30;;;35.03;;
6955;SDS011;50345;51.136;16.886;2023-01-08T06:34:26;50.67;;;36.73;;
6955;SDS011;50345;51.136;16.886;2023-01-08T06:36:51;42.93;;;32.00;;
6955;SDS011;50345;51.136;16.886;2023-01-08T06:39:17;35.67;;;27.50;;
6955;SDS011;50345;51.136;16.886;2023-01-08T06:41:42;30.07;;;25.33;;
6955;SDS011;50345;51.136;16.886;2023-01-08T06:44:08;33.43;;;25.30;;
6955;SDS011;50345;51.136;16.886;2023-01-08T06:46:34;30.27;;;24.73;;
6955;SDS011;50345;51.136;16.886;2023-01-08T06:49:04;114.82;;;60.15;;
6955;SDS011;50345;51.136;16.886;2023-01-08T06:51:30;53.10;;;34.45;;
6955;SDS011;50345;51.136;16.886;2023-01-08T06:53:56;42.63;;;27.77;;
6955;SDS011;50345;51.136;16.886;2023-01-08T06:56:22;39.03;;;27.30;;
6955;SDS011;50345;51.136;16.886;2023-01-08T06:58:47;45.43;;;28.70;;
6955;SDS011;50345;51.136;16.886;2023-01-08T07:01:13;43.60;;;30.80;;
6955;SDS011;50345;51.136;16.886;2023-01-08T07:03:40;44.17;;;29.55;;
6955;SDS011;50345;51.136;16.886;2023-01-08T07:06:05;44.60;;;30.50;;
6955;SDS011;50345;51.136;16.886;2023-01-08T07:08:31;44.65;;;30.70;;
6955;SDS011;50345;51.136;16.886;2023-01-08T07:11:00;40.03;;;30.40;;
6955;SDS011;50345;51.136;16.886;2023-01-08T07:13:27;44.72;;;27.50;;
6955;SDS011;50345;51.136;16.886;2023-01-08T07:15:53;39.83;;;28.10;;
6955;SDS011;50345;51.136;16.886;2023-01-08T07:18:20;48.65;;;31.83;;
6955;SDS011;50345;51.136;16.886;2023-01-08T07:20:46;32.40;;;25.10;;
6955;SDS011;50345;51.136;16.886;2023-01-08T07:23:13;36.47;;;26.40;;
6955;SDS011;50345;51.136;16.886;2023-01-08T07:25:39;40.20;;;29.10;;
6955;SDS011;50345;51.136;16.886;2023-01-08T07:28:04;44.00;;;27.70;;
6955;SDS011;50345;51.136;16.886;2023-01-08T07:30:30;41.40;;;28.60;;
6955;SDS011;50345;51.136;16.886;2023-01-08T07:32:57;38.63;;;28.20;;
6955;SDS011;50345;51.136;16.886;2023-01-08T07:35:23;40.97;;;29.45;;
6955;SDS011;50345;51.136;16.886;2023-01-08T07:37:49;42.07;;;29.63;;
6955;SDS011;50345;51.136;16.886;2023-01-08T07:40:14;36.03;;;26.50;;
6955;SDS011;50345;51.136;16.886;2023-01-08T07:42:40;34.13;;;25.77;;
6955;SDS011;50345;51.136;16.886;2023-01-08T07:45:06;37.07;;;24.30;;
6955;SDS011;50345;51.136;16.886;2023-01-08T07:47:32;39.60;;;27.42;;
6955;SDS011;50345;51.136;16.886;2023-01-08T07:49:57;34.60;;;27.57;;
6955;SDS011;50345;51.136;16.886;2023-01-08T07:52:23;33.97;;;24.70;;
6955;SDS011;50345;51.136;16.886;2023-01-08T07:54:49;32.00;;;23.97;;
6955;SDS011;50345;51.136;16.886;2023-01-08T07:57:14;29.53;;;25.07;;
6955;SDS011;50345;51.136;16.886;2023-01-08T07:59:40;29.53;;;22.93;;
6955;SDS011;50345;51.136;16.886;2023-01-08T08:02:05;30.67;;;24.27;;
6955;SDS011;50345;51.136;16.886;2023-01-08T08:04:31;33.20;;;23.70;;
6955;SDS011;50345;51.136;16.886;2023-01-08T08:06:57;31.63;;;24.17;;
6955;SDS011;50345;51.136;16.886;2023-01-08T08:09:23;33.28;;;26.35;;
6955;SDS011;50345;51.136;16.886;2023-01-08T08:11:48;31.50;;;25.47;;
6955;SDS011;50345;51.136;16.886;2023-01-08T08:14:14;37.23;;;30.20;;
6955;SDS011;50345;51.136;16.886;2023-01-08T08:16:40;33.58;;;27.65;;
6955;SDS011;50345;51.136;16.886;2023-01-08T08:19:05;32.67;;;26.80;;
6955;SDS011;50345;51.136;16.886;2023-01-08T08:21:31;32.77;;;26.27;;
6955;SDS011;50345;51.136;16.886;2023-01-08T08:23:57;28.20;;;22.73;;
6955;SDS011;50345;51.136;16.886;2023-01-08T08:26:22;29.70;;;23.93;;
6955;SDS011;50345;51.136;16.886;2023-01-08T08:28:48;31.92;;;23.45;;
6955;SDS011;50345;51.136;16.886;2023-01-08T08:31:14;33.97;;;24.70;;
6955;SDS011;50345;51.136;16.886;2023-01-08T08:33:40;28.53;;;23.10;;
6955;SDS011;50345;51.136;16.886;2023-01-08T08:36:05;27.87;;;22.00;;
6955;SDS011;50345;51.136;16.886;2023-01-08T08:38:31;25.52;;;21.17;;
6955;SDS011;50345;51.136;16.886;2023-01-08T08:40:57;25.87;;;21.60;;
6955;SDS011;50345;51.136;16.886;2023-01-08T08:43:23;23.63;;;19.40;;
6955;SDS011;50345;51.136;16.886;2023-01-08T08:45:48;20.80;;;18.00;;
6955;SDS011;50345;51.136;16.886;2023-01-08T08:48:14;22.40;;;19.37;;
6955;SDS011;50345;51.136;16.886;2023-01-08T08:50:40;23.95;;;20.63;;
6955;SDS011;50345;51.136;16.886;2023-01-08T08:53:06;22.33;;;19.10;;
6955;SDS011;50345;51.136;16.886;2023-01-08T08:55:33;23.55;;;18.90;;
6955;SDS011;50345;51.136;16.886;2023-01-08T08:58:03;22.10;;;19.10;;
6955;SDS011;50345;51.136;16.886;2023-01-08T09:00:30;24.30;;;20.23;;
6955;SDS011;50345;51.136;16.886;2023-01-08T09:02:55;19.77;;;17.70;;
6955;SDS011;50345;51.136;16.886;2023-01-08T09:05:21;25.03;;;20.10;;
6955;SDS011;50345;51.136;16.886;2023-01-08T09:07:46;21.67;;;18.43;;
6955;SDS011;50345;51.136;16.886;2023-01-08T09:10:12;21.73;;;17.70;;
6955;SDS011;50345;51.136;16.886;2023-01-08T09:12:37;21.37;;;17.17;;
6955;SDS011;50345;51.136;16.886;2023-01-08T09:15:03;18.33;;;15.97;;
6955;SDS011;50345;51.136;16.886;2023-01-08T09:17:29;22.45;;;18.50;;
6955;SDS011;50345;51.136;16.886;2023-01-08T09:19:55;18.40;;;15.13;;
6955;SDS011;50345;51.136;16.886;2023-01-08T09:22:20;17.97;;;16.07;;
6955;SDS011;50345;51.136;16.886;2023-01-08T09:24:46;18.37;;;16.47;;
6955;SDS011;50345;51.136;16.886;2023-01-08T09:27:12;18.27;;;15.93;;
6955;SDS011;50345;51.136;16.886;2023-01-08T09:29:37;19.48;;;16.83;;
6955;SDS011;50345;51.136;16.886;2023-01-08T09:32:06;20.73;;;16.27;;
6955;SDS011;50345;51.136;16.886;2023-01-08T09:34:33;21.65;;;18.77;;
6955;SDS011;50345;51.136;16.886;2023-01-08T09:37:00;21.05;;;18.17;;
6955;SDS011;50345;51.136;16.886;2023-01-08T09:39:25;17.83;;;15.73;;
6955;SDS011;50345;51.136;16.886;2023-01-08T09:41:51;17.07;;;15.30;;
6955;SDS011;50345;51.136;16.886;2023-01-08T09:44:19;19.13;;;17.13;;
6955;SDS011;50345;51.136;16.886;2023-01-08T09:46:50;21.15;;;17.85;;
6955;SDS011;50345;51.136;16.886;2023-01-08T09:49:26;19.05;;;16.98;;
6955;SDS011;50345;51.136;16.886;2023-01-08T09:52:04;16.23;;;14.55;;
6955;SDS011;50345;51.136;16.886;2023-01-08T09:54:29;15.90;;;14.23;;
6955;SDS011;50345;51.136;16.886;2023-01-08T09:56:56;18.23;;;16.33;;
6955;SDS011;50345;51.136;16.886;2023-01-08T09:59:23;16.52;;;14.70;;
6955;SDS011;50345;51.136;16.886;2023-01-08T10:01:49;14.90;;;13.30;;
6955;SDS011;50345;51.136;16.886;2023-01-08T10:06:51;14.57;;;12.98;;
6955;SDS011;50345;51.136;16.886;2023-01-08T10:09:23;17.05;;;14.60;;
6955;SDS011;50345;51.136;16.886;2023-01-08T10:11:54;14.40;;;12.90;;
6955;SDS011;50345;51.136;16.886;2023-01-08T10:14:44;14.25;;;12.95;;
6955;SDS011;50345;51.136;16.886;2023-01-08T10:17:23;14.80;;;13.30;;
6955;SDS011;50345;51.136;16.886;2023-01-08T10:19:51;15.05;;;13.52;;
6955;SDS011;50345;51.136;16.886;2023-01-08T10:22:19;16.00;;;14.43;;
6955;SDS011;50345;51.136;16.886;2023-01-08T10:24:47;14.27;;;12.77;;
6955;SDS011;50345;51.136;16.886;2023-01-08T10:27:13;14.37;;;12.90;;
6955;SDS011;50345;51.136;16.886;2023-01-08T10:29:41;14.70;;;13.15;;
6955;SDS011;50345;51.136;16.886;2023-01-08T10:32:15;13.52;;;11.82;;
6955;SDS011;50345;51.136;16.886;2023-01-08T10:34:49;12.35;;;11.20;;
6955;SDS011;50345;51.136;16.886;2023-01-08T10:37:21;15.07;;;12.35;;
6955;SDS011;50345;51.136;16.886;2023-01-08T10:40:07;12.93;;;11.40;;
6955;SDS011;50345;51.136;16.886;2023-01-08T10:42:41;10.85;;;9.75;;
6955;SDS011;50345;51.136;16.886;2023-01-08T10:45:14;11.97;;;10.80;;
6955;SDS011;50345;51.136;16.886;2023-01-08T10:47:49;11.88;;;10.75;;
6955;SDS011;50345;51.136;16.886;2023-01-08T10:50:19;12.98;;;10.65;;
6955;SDS011;50345;51.136;16.886;2023-01-08T10:52:53;13.32;;;11.93;;
6955;SDS011;50345;51.136;16.886;2023-01-08T10:55:22;12.90;;;11.52;;
6955;SDS011;50345;51.136;16.886;2023-01-08T10:57:57;11.48;;;10.27;;
6955;SDS011;50345;51.136;16.886;2023-01-08T11:00:27;12.63;;;10.88;;
6955;SDS011;50345;51.136;16.886;2023-01-08T11:02:58;14.05;;;10.45;;
6955;SDS011;50345;51.136;16.886;2023-01-08T11:05:46;12.27;;;9.80;;
6955;SDS011;50345;51.136;16.886;2023-01-08T11:08:16;10.98;;;9.85;;
6955;SDS011;50345;51.136;16.886;2023-01-08T11:10:53;10.85;;;9.80;;
6955;SDS011;50345;51.136;16.886;2023-01-08T11:13:21;12.10;;;10.70;;
6955;SDS011;50345;51.136;16.886;2023-01-08T11:15:57;11.00;;;9.50;;
6955;SDS011;50345;51.136;16.886;2023-01-08T11:18:27;13.25;;;11.68;;
6955;SDS011;50345;51.136;16.886;2023-01-08T11:21:04;11.17;;;10.17;;
6955;SDS011;50345;51.136;16.886;2023-01-08T11:23:32;11.50;;;10.38;;
6955;SDS011;50345;51.136;16.886;2023-01-08T11:26:06;10.47;;;9.47;;
6955;SDS011;50345;51.136;16.886;2023-01-08T11:37:01;11.95;;;10.85;;
6955;SDS011;50345;51.136;16.886;2023-01-08T11:39:36;13.25;;;11.10;;
6955;SDS011;50345;51.136;16.886;2023-01-08T11:42:07;11.00;;;9.88;;
6955;SDS011;50345;51.136;16.886;2023-01-08T11:50:27;12.40;;;11.15;;
6955;SDS011;50345;51.136;16.886;2023-01-08T11:55:55;11.25;;;10.00;;
6955;SDS011;50345;51.136;16.886;2023-01-08T12:01:39;12.27;;;10.52;;
6955;SDS011;50345;51.136;16.886;2023-01-08T12:04:31;10.25;;;9.25;;
6955;SDS011;50345;51.136;16.886;2023-01-08T12:10:17;10.35;;;9.43;;
6955;SDS011;50345;51.136;16.886;2023-01-08T12:21:45;10.55;;;9.45;;
6955;SDS011;50345;51.136;16.886;2023-01-08T12:27:17;10.90;;;9.80;;
6955;SDS011;50345;51.136;16.886;2023-01-08T12:29:50;9.68;;;8.68;;
6955;SDS011;50345;51.136;16.886;2023-01-08T12:35:21;10.25;;;9.25;;
6955;SDS011;50345;51.136;16.886;2023-01-08T12:37:58;11.05;;;9.60;;
6955;SDS011;50345;51.136;16.886;2023-01-08T12:40:35;11.57;;;10.48;;
6955;SDS011;50345;51.136;16.886;2023-01-08T12:43:13;10.85;;;9.75;;
6955;SDS011;50345;51.136;16.886;2023-01-08T12:45:45;16.13;;;9.80;;
6955;SDS011;50345;51.136;16.886;2023-01-08T12:48:18;11.55;;;10.15;;
6955;SDS011;50345;51.136;16.886;2023-01-08T12:56:04;15.07;;;11.43;;
6955;SDS011;50345;51.136;16.886;2023-01-08T13:01:46;16.08;;;13.82;;
6955;SDS011;50345;51.136;16.886;2023-01-08T13:04:23;19.55;;;17.23;;
6955;SDS011;50345;51.136;16.886;2023-01-08T13:07:02;17.23;;;15.00;;
6955;SDS011;50345;51.136;16.886;2023-01-08T13:09:28;20.40;;;15.75;;
6955;SDS011;50345;51.136;16.886;2023-01-08T13:15:19;19.55;;;15.10;;
6955;SDS011;50345;51.136;16.886;2023-01-08T13:17:49;14.50;;;12.27;;
6955;SDS011;50345;51.136;16.886;2023-01-08T13:20:33;15.02;;;12.50;;
6955;SDS011;50345;51.136;16.886;2023-01-08T13:23:00;16.58;;;12.63;;
6955;SDS011;50345;51.136;16.886;2023-01-08T13:25:34;14.07;;;11.52;;
6955;SDS011;50345;51.136;16.886;2023-01-08T13:30:49;17.27;;;14.07;;
6955;SDS011;50345;51.136;16.886;2023-01-08T13:38:36;19.33;;;14.20;;
6955;SDS011;50345;51.136;16.886;2023-01-08T13:41:11;18.23;;;13.40;;
6955;SDS011;50345;51.136;16.886;2023-01-08T13:43:48;23.35;;;17.50;;
6955;SDS011;50345;51.136;16.886;2023-01-08T13:46:21;20.85;;;15.85;;
6955;SDS011;50345;51.136;16.886;2023-01-08T13:49:00;17.17;;;13.10;;
6955;SDS011;50345;51.136;16.886;2023-01-08T13:51:30;17.48;;;14.18;;
6955;SDS011;50345;51.136;16.886;2023-01-08T13:54:07;15.35;;;13.07;;
6955;SDS011;50345;51.136;16.886;2023-01-08T13:57:02;18.73;;;14.68;;
6955;SDS011;50345;51.136;16.886;2023-01-08T13:59:47;16.13;;;12.93;;
6955;SDS011;50345;51.136;16.886;2023-01-08T14:04:55;16.02;;;12.98;;
6955;SDS011;50345;51.136;16.886;2023-01-08T14:07:22;21.83;;;19.50;;
6955;SDS011;50345;51.136;16.886;2023-01-08T14:09:48;19.00;;;16.98;;
6955;SDS011;50345;51.136;16.886;2023-01-08T14:12:20;26.07;;;21.97;;
6955;SDS011;50345;51.136;16.886;2023-01-08T14:14:52;21.70;;;16.23;;
6955;SDS011;50345;51.136;16.886;2023-01-08T14:17:24;19.90;;;16.48;;
6955;SDS011;50345;51.136;16.886;2023-01-08T14:19:54;20.50;;;17.38;;
6955;SDS011;50345;51.136;16.886;2023-01-08T14:22:22;17.88;;;15.98;;
6955;SDS011;50345;51.136;16.886;2023-01-08T14:25:00;23.45;;;18.25;;
6955;SDS011;50345;51.136;16.886;2023-01-08T14:27:29;24.23;;;19.75;;
6955;SDS011;50345;51.136;16.886;2023-01-08T14:29:55;32.05;;;25.95;;
6955;SDS011;50345;51.136;16.886;2023-01-08T14:32:22;40.90;;;30.37;;
6955;SDS011;50345;51.136;16.886;2023-01-08T14:34:55;54.75;;;41.67;;
6955;SDS011;50345;51.136;16.886;2023-01-08T14:37:23;58.90;;;43.42;;
6955;SDS011;50345;51.136;16.886;2023-01-08T14:39:49;53.63;;;41.90;;
6955;SDS011;50345;51.136;16.886;2023-01-08T14:42:18;52.22;;;36.10;;
6955;SDS011;50345;51.136;16.886;2023-01-08T14:45:18;55.42;;;40.08;;
6955;SDS011;50345;51.136;16.886;2023-01-08T14:47:48;75.40;;;50.55;;
6955;SDS011;50345;51.136;16.886;2023-01-08T14:50:22;42.88;;;31.67;;
6955;SDS011;50345;51.136;16.886;2023-01-08T14:52:55;30.02;;;20.08;;
6955;SDS011;50345;51.136;16.886;2023-01-08T14:55:23;28.27;;;20.50;;
6955;SDS011;50345;51.136;16.886;2023-01-08T14:57:50;36.33;;;29.77;;
6955;SDS011;50345;51.136;16.886;2023-01-08T15:00:20;41.13;;;33.08;;
6955;SDS011;50345;51.136;16.886;2023-01-08T15:02:47;20.38;;;17.25;;
6955;SDS011;50345;51.136;16.886;2023-01-08T15:07:53;19.52;;;15.35;;
6955;SDS011;50345;51.136;16.886;2023-01-08T15:13:05;19.60;;;15.93;;
6955;SDS011;50345;51.136;16.886;2023-01-08T15:15:35;27.50;;;18.35;;
6955;SDS011;50345;51.136;16.886;2023-01-08T15:18:13;24.15;;;20.30;;
6955;SDS011;50345;51.136;16.886;2023-01-08T15:20:39;28.23;;;21.70;;
6955;SDS011;50345;51.136;16.886;2023-01-08T15:23:17;30.25;;;21.85;;
6955;SDS011;50345;51.136;16.886;2023-01-08T15:25:50;27.38;;;20.25;;
6955;SDS011;50345;51.136;16.886;2023-01-08T15:28:18;24.40;;;20.98;;
6955;SDS011;50345;51.136;16.886;2023-01-08T15:30:47;26.73;;;19.67;;
6955;SDS011;50345;51.136;16.886;2023-01-08T15:33:19;25.42;;;18.58;;
6955;SDS011;50345;51.136;16.886;2023-01-08T15:35:46;25.13;;;18.63;;
6955;SDS011;50345;51.136;16.886;2023-01-08T15:38:12;35.17;;;23.83;;
6955;SDS011;50345;51.136;16.886;2023-01-08T15:40:38;37.73;;;24.33;;
6955;SDS011;50345;51.136;16.886;2023-01-08T15:43:04;42.57;;;27.40;;
6955;SDS011;50345;51.136;16.886;2023-01-08T15:45:35;41.40;;;27.83;;
6955;SDS011;50345;51.136;16.886;2023-01-08T15:48:09;34.45;;;22.85;;
6955;SDS011;50345;51.136;16.886;2023-01-08T15:50:36;43.85;;;28.58;;
6955;SDS011;50345;51.136;16.886;2023-01-08T15:53:04;33.63;;;27.00;;
6955;SDS011;50345;51.136;16.886;2023-01-08T15:55:34;35.42;;;25.92;;
6955;SDS011;50345;51.136;16.886;2023-01-08T15:58:00;32.13;;;23.45;;
6955;SDS011;50345;51.136;16.886;2023-01-08T16:00:26;104.23;;;59.37;;